createdAt,value
2019-02-28T00:00:06.518Z,0
2019-02-28T00:01:19.860Z,0
2019-02-28T00:02:29.880Z,0
2019-02-28T00:03:39.805Z,0
2019-02-28T00:04:49.755Z,0
2019-02-28T00:05:59.684Z,0
2019-02-28T00:07:09.394Z,0
2019-02-28T00:08:19.324Z,0
2019-02-28T00:09:30.562Z,0
2019-02-28T00:10:40.506Z,0
2019-02-28T00:11:50.439Z,0
2019-02-28T00:13:00.377Z,0
2019-02-28T00:14:10.411Z,0
2019-02-28T00:15:20.338Z,0
2019-02-28T00:16:30.263Z,0
2019-02-28T00:17:47.540Z,0
2019-02-28T00:18:57.811Z,0
2019-02-28T00:20:07.740Z,0
2019-02-28T00:21:17.675Z,0
2019-02-28T00:22:27.377Z,0
2019-02-28T00:23:37.343Z,0
2019-02-28T00:24:47.280Z,0
2019-02-28T00:25:57.249Z,0
2019-02-28T00:27:07.189Z,0
2019-02-28T00:28:17.141Z,0
2019-02-28T00:29:27.097Z,0
2019-02-28T00:30:44.991Z,0
2019-02-28T00:31:57.817Z,0
2019-02-28T00:33:07.742Z,0
2019-02-28T00:34:17.419Z,0
2019-02-28T00:35:27.375Z,0
2019-02-28T00:36:37.064Z,0
2019-02-28T00:37:46.749Z,0
2019-02-28T00:38:56.171Z,0
2019-02-28T00:40:09.136Z,0
2019-02-28T00:41:19.070Z,0
2019-02-28T00:42:28.999Z,0
2019-02-28T00:43:38.928Z,0
2019-02-28T00:44:48.363Z,0
2019-02-28T00:45:58.299Z,0
2019-02-28T00:47:08.227Z,0
2019-02-28T00:48:23.718Z,0
2019-02-28T00:49:33.660Z,0
2019-02-28T00:50:43.581Z,0
2019-02-28T00:51:53.260Z,0
2019-02-28T00:53:02.953Z,0
2019-02-28T00:54:15.593Z,0
2019-02-28T00:55:25.543Z,0
2019-02-28T00:56:35.489Z,0
2019-02-28T00:57:45.188Z,0
2019-02-28T00:58:55.142Z,0
2019-02-28T01:00:12.484Z,0
2019-02-28T01:01:22.426Z,0
2019-02-28T01:02:32.357Z,0
2019-02-28T01:03:42.292Z,0
2019-02-28T01:04:51.972Z,0
2019-02-28T01:06:01.664Z,0
2019-02-28T01:07:13.227Z,0
2019-02-28T01:08:29.080Z,0
2019-02-28T01:09:39.012Z,0
2019-02-28T01:10:48.945Z,0
2019-02-28T01:11:58.868Z,0
2019-02-28T01:13:08.556Z,0
2019-02-28T01:14:18.228Z,0
2019-02-28T01:15:27.928Z,0
2019-02-28T01:16:37.610Z,0
2019-02-28T01:17:48.780Z,0
2019-02-28T01:18:58.719Z,0
2019-02-28T01:20:08.669Z,0
2019-02-28T01:21:26.176Z,0
2019-02-28T01:22:36.116Z,0
2019-02-28T01:23:46.050Z,0
2019-02-28T01:24:55.993Z,0
2019-02-28T01:26:05.919Z,0
2019-02-28T01:27:17.259Z,0
2019-02-28T01:28:34.059Z,0
2019-02-28T01:29:44.000Z,0
2019-02-28T01:30:53.930Z,0
2019-02-28T01:32:03.844Z,0
2019-02-28T01:33:13.757Z,0
2019-02-28T01:34:23.189Z,0
2019-02-28T01:35:33.156Z,0
2019-02-28T01:36:53.280Z,0
2019-02-28T01:38:02.959Z,0
2019-02-28T01:39:12.411Z,0
2019-02-28T01:40:22.118Z,0
2019-02-28T01:41:32.040Z,0
2019-02-28T01:42:41.994Z,0
2019-02-28T01:43:51.674Z,0
2019-02-28T01:45:01.596Z,0
2019-02-28T01:46:14.390Z,0
2019-02-28T01:47:28.144Z,0
2019-02-28T01:48:38.079Z,0
2019-02-28T01:49:47.790Z,0
2019-02-28T01:51:00.775Z,0
2019-02-28T01:52:17.135Z,0
2019-02-28T01:53:26.816Z,0
2019-02-28T01:54:36.748Z,0
2019-02-28T01:55:46.664Z,0
2019-02-28T01:56:56.335Z,0
2019-02-28T01:58:06.005Z,0
2019-02-28T01:59:15.925Z,0
2019-02-28T02:00:28.407Z,0
2019-02-28T02:01:38.849Z,0
2019-02-28T02:02:48.824Z,0
2019-02-28T02:03:58.752Z,0
2019-02-28T02:05:08.434Z,0
2019-02-28T02:06:17.868Z,0
2019-02-28T02:07:37.793Z,0
2019-02-28T02:08:47.730Z,0
2019-02-28T02:09:57.681Z,0
2019-02-28T02:11:07.414Z,0
2019-02-28T02:12:17.362Z,0
2019-02-28T02:13:27.313Z,0
2019-02-28T02:14:36.990Z,0
2019-02-28T02:15:50.716Z,0
2019-02-28T02:17:05.544Z,0
2019-02-28T02:18:17.013Z,0
2019-02-28T02:19:26.960Z,0
2019-02-28T02:20:36.882Z,0
2019-02-28T02:21:46.551Z,0
2019-02-28T02:22:56.220Z,0
2019-02-28T02:24:05.677Z,0
2019-02-28T02:25:15.638Z,0
2019-02-28T02:26:25.550Z,0
2019-02-28T02:27:35.488Z,0
2019-02-28T02:28:45.195Z,0
2019-02-28T02:29:55.138Z,0
2019-02-28T02:31:04.822Z,0
2019-02-28T02:32:14.296Z,0
2019-02-28T02:33:24.299Z,0
2019-02-28T02:34:36.544Z,0
2019-02-28T02:35:50.673Z,0
2019-02-28T02:37:01.741Z,0
2019-02-28T02:38:12.035Z,0
2019-02-28T02:39:24.851Z,0
2019-02-28T02:40:34.836Z,0
2019-02-28T02:41:44.522Z,0
2019-02-28T02:42:56.766Z,0
2019-02-28T02:44:06.457Z,0
2019-02-28T02:45:16.171Z,0
2019-02-28T02:46:28.365Z,0
2019-02-28T02:47:39.691Z,0
2019-02-28T02:48:50.527Z,0
2019-02-28T02:50:04.781Z,0
2019-02-28T02:51:19.463Z,0
2019-02-28T02:52:37.102Z,0
2019-02-28T02:53:49.276Z,0
2019-02-28T02:55:00.344Z,0
2019-02-28T02:56:12.047Z,0
2019-02-28T02:57:22.686Z,0
2019-02-28T02:58:35.186Z,0
2019-02-28T02:59:46.566Z,0
2019-02-28T03:00:58.669Z,0
2019-02-28T03:02:08.678Z,0
2019-02-28T03:03:18.653Z,0
2019-02-28T03:04:30.561Z,0
2019-02-28T03:05:43.783Z,0
2019-02-28T03:06:54.093Z,0
2019-02-28T03:08:08.023Z,0
2019-02-28T03:09:18.403Z,0
2019-02-28T03:10:28.389Z,0
2019-02-28T03:11:38.098Z,0
2019-02-28T03:12:48.142Z,0
2019-02-28T03:13:58.094Z,0
2019-02-28T03:15:08.047Z,0
2019-02-28T03:16:17.790Z,0
2019-02-28T03:17:27.730Z,0
2019-02-28T03:18:37.652Z,0
2019-02-28T03:19:47.626Z,0
2019-02-28T03:20:57.320Z,0
2019-02-28T03:22:07.040Z,0
2019-02-28T03:23:16.997Z,0
2019-02-28T03:24:26.962Z,0
2019-02-28T03:25:36.692Z,0
2019-02-28T03:26:49.426Z,0
2019-02-28T03:28:03.723Z,0
2019-02-28T03:29:15.944Z,0
2019-02-28T03:30:38.841Z,0
2019-02-28T03:32:02.169Z,0
2019-02-28T03:33:28.650Z,0
2019-02-28T03:34:38.820Z,0
2019-02-28T03:35:51.288Z,0
2019-02-28T03:37:04.518Z,0
2019-02-28T03:38:19.602Z,0
2019-02-28T03:39:32.784Z,0
2019-02-28T03:40:47.263Z,0
2019-02-28T03:42:00.217Z,0
2019-02-28T03:43:14.032Z,0
2019-02-28T03:44:28.853Z,0
2019-02-28T03:45:42.364Z,0
2019-02-28T03:46:54.900Z,0
2019-02-28T03:48:06.602Z,0
2019-02-28T03:49:19.374Z,0
2019-02-28T03:50:30.023Z,0
2019-02-28T03:51:40.008Z,0
2019-02-28T03:52:51.698Z,0
2019-02-28T03:54:03.944Z,0
2019-02-28T03:55:13.952Z,0
2019-02-28T03:56:23.946Z,0
2019-02-28T03:57:36.693Z,0
2019-02-28T03:58:50.183Z,0
2019-02-28T04:00:04.161Z,0
2019-02-28T04:01:17.313Z,0
2019-02-28T04:02:29.506Z,0
2019-02-28T04:03:41.512Z,0
2019-02-28T04:04:57.475Z,0
2019-02-28T04:06:11.717Z,0
2019-02-28T04:07:24.084Z,0
2019-02-28T04:08:37.651Z,0
2019-02-28T04:09:52.284Z,0
2019-02-28T04:11:03.130Z,0
2019-02-28T04:12:15.997Z,0
2019-02-28T04:13:27.251Z,0
2019-02-28T04:14:41.352Z,0
2019-02-28T04:16:14.934Z,0
2019-02-28T04:17:29.812Z,0
2019-02-28T04:18:46.885Z,0
2019-02-28T04:20:03.654Z,0
2019-02-28T04:21:17.809Z,0
2019-02-28T04:22:30.439Z,0
2019-02-28T04:23:44.006Z,0
2019-02-28T04:24:54.900Z,0
2019-02-28T04:26:05.196Z,0
2019-02-28T04:27:15.180Z,0
2019-02-28T04:28:26.005Z,0
2019-02-28T04:29:38.326Z,0
2019-02-28T04:30:50.915Z,0
2019-02-28T04:32:02.805Z,0
2019-02-28T04:33:12.755Z,0
2019-02-28T04:34:22.707Z,0
2019-02-28T04:35:32.706Z,0
2019-02-28T04:36:43.713Z,0
2019-02-28T04:37:54.539Z,0
2019-02-28T04:39:04.006Z,0
2019-02-28T04:40:13.708Z,0
2019-02-28T04:41:23.674Z,0
2019-02-28T04:42:36.595Z,0
2019-02-28T04:43:50.942Z,0
2019-02-28T04:45:00.895Z,0
2019-02-28T04:46:10.590Z,0
2019-02-28T04:47:20.549Z,0
2019-02-28T04:48:30.501Z,0
2019-02-28T04:49:40.465Z,0
2019-02-28T04:50:50.410Z,0
2019-02-28T04:52:00.363Z,0
2019-02-28T04:53:10.339Z,0
2019-02-28T04:54:20.301Z,0
2019-02-28T04:55:34.192Z,0
2019-02-28T04:56:52.401Z,0
2019-02-28T04:58:02.381Z,0
2019-02-28T04:59:12.076Z,0
2019-02-28T05:00:22.016Z,0
2019-02-28T05:01:31.960Z,0
2019-02-28T05:02:41.690Z,0
2019-02-28T05:03:52.745Z,0
2019-02-28T05:05:02.730Z,0
2019-02-28T05:06:12.668Z,0
2019-02-28T05:07:22.113Z,0
2019-02-28T05:08:41.294Z,0
2019-02-28T05:09:54.587Z,0
2019-02-28T05:11:04.536Z,0
2019-02-28T05:12:14.486Z,0
2019-02-28T05:13:23.928Z,0
2019-02-28T05:14:33.632Z,0
2019-02-28T05:15:46.611Z,0
2019-02-28T05:16:56.575Z,0
2019-02-28T05:18:06.537Z,0
2019-02-28T05:19:16.574Z,0
2019-02-28T05:20:26.276Z,0
2019-02-28T05:21:35.965Z,0
2019-02-28T05:22:45.948Z,0
2019-02-28T05:23:55.895Z,0
2019-02-28T05:25:05.830Z,4
2019-02-28T05:26:15.523Z,0
2019-02-28T05:27:26.996Z,4
2019-02-28T05:28:47.550Z,4
2019-02-28T05:29:57.545Z,8
2019-02-28T05:31:07.484Z,8
2019-02-28T05:32:17.437Z,8
2019-02-28T05:33:27.138Z,12
2019-02-28T05:34:36.841Z,12
2019-02-28T05:35:46.792Z,20
2019-02-28T05:36:56.783Z,20
2019-02-28T05:38:06.743Z,24
2019-02-28T05:39:16.448Z,32
2019-02-28T05:40:26.144Z,40
2019-02-28T05:41:36.323Z,52
2019-02-28T05:42:46.089Z,60
2019-02-28T05:43:56.046Z,76
2019-02-28T05:45:05.753Z,92
2019-02-28T05:46:15.718Z,108
2019-02-28T05:47:47.833Z,136
2019-02-28T05:48:57.539Z,156
2019-02-28T05:50:07.298Z,184
2019-02-28T05:51:24.834Z,220
2019-02-28T05:52:40.598Z,252
2019-02-28T05:53:50.561Z,292
2019-02-28T05:55:01.745Z,332
2019-02-28T05:56:11.455Z,368
2019-02-28T05:57:21.391Z,412
2019-02-28T05:58:31.347Z,464
2019-02-28T05:59:41.060Z,508
2019-02-28T06:00:50.774Z,564
2019-02-28T06:02:00.464Z,616
2019-02-28T06:03:10.423Z,672
2019-02-28T06:04:20.359Z,732
2019-02-28T06:05:30.307Z,792
2019-02-28T06:06:39.997Z,860
2019-02-28T06:07:49.694Z,924
2019-02-28T06:08:59.624Z,992
2019-02-28T06:10:09.345Z,1056
2019-02-28T06:11:20.167Z,1128
2019-02-28T06:12:29.859Z,1196
2019-02-28T06:13:41.818Z,1268
2019-02-28T06:14:51.776Z,1336
2019-02-28T06:16:01.479Z,1400
2019-02-28T06:17:11.460Z,1464
2019-02-28T06:18:21.161Z,1528
2019-02-28T06:19:40.129Z,1600
2019-02-28T06:20:56.038Z,1672
2019-02-28T06:22:07.236Z,1740
2019-02-28T06:23:17.321Z,1800
2019-02-28T06:24:27.013Z,1864
2019-02-28T06:25:36.716Z,1928
2019-02-28T06:26:46.423Z,1984
2019-02-28T06:27:57.854Z,2048
2019-02-28T06:29:12.023Z,2112
2019-02-28T06:30:22.037Z,2172
2019-02-28T06:31:32.019Z,2228
2019-02-28T06:32:42.154Z,2288
2019-02-28T06:33:51.851Z,2344
2019-02-28T06:35:02.381Z,2408
2019-02-28T06:36:12.090Z,2468
2019-02-28T06:37:23.947Z,2520
2019-02-28T06:38:33.727Z,2580
2019-02-28T06:39:44.751Z,2636
2019-02-28T06:40:54.435Z,2700
2019-02-28T06:42:04.142Z,2752
2019-02-28T06:43:14.210Z,2800
2019-02-28T06:44:31.563Z,2864
2019-02-28T06:45:44.591Z,2916
2019-02-28T06:46:54.270Z,2976
2019-02-28T06:48:04.351Z,3024
2019-02-28T06:49:13.917Z,3068
2019-02-28T06:50:23.640Z,3120
2019-02-28T06:51:33.344Z,3176
2019-02-28T06:52:43.023Z,3228
2019-02-28T06:53:52.991Z,3280
2019-02-28T06:55:02.960Z,3324
2019-02-28T06:56:12.653Z,3372
2019-02-28T06:57:29.512Z,3424
2019-02-28T06:58:41.201Z,3472
2019-02-28T06:59:51.131Z,3516
2019-02-28T07:01:01.109Z,3564
2019-02-28T07:02:11.173Z,3612
2019-02-28T07:03:20.629Z,3660
2019-02-28T07:04:30.332Z,3704
2019-02-28T07:05:40.285Z,3748
2019-02-28T07:06:50.287Z,3788
2019-02-28T07:08:00.237Z,3836
2019-02-28T07:09:10.317Z,3904
2019-02-28T07:10:20.350Z,3956
2019-02-28T07:11:30.323Z,4008
2019-02-28T07:12:40.079Z,4040
2019-02-28T07:13:50.051Z,4092
2019-02-28T07:15:00.021Z,4148
2019-02-28T07:16:11.596Z,4200
2019-02-28T07:17:21.562Z,4244
2019-02-28T07:18:31.378Z,4284
2019-02-28T07:19:41.145Z,4324
2019-02-28T07:20:52.075Z,4364
2019-02-28T07:22:02.286Z,4416
2019-02-28T07:23:12.275Z,4464
2019-02-28T07:24:21.987Z,4520
2019-02-28T07:25:33.117Z,4584
2019-02-28T07:26:43.162Z,4628
2019-02-28T07:27:53.167Z,4668
2019-02-28T07:29:03.119Z,4728
2019-02-28T07:30:24.763Z,4796
2019-02-28T07:31:34.486Z,4852
2019-02-28T07:32:44.453Z,4892
2019-02-28T07:33:55.944Z,4924
2019-02-28T07:35:05.990Z,4976
2019-02-28T07:36:17.508Z,5020
2019-02-28T07:37:27.210Z,5076
2019-02-28T07:38:37.158Z,5136
2019-02-28T07:39:48.172Z,5184
2019-02-28T07:40:58.156Z,5232
2019-02-28T07:42:10.111Z,5268
2019-02-28T07:43:20.432Z,5308
2019-02-28T07:44:30.436Z,5356
2019-02-28T07:45:41.289Z,5388
2019-02-28T07:46:51.257Z,5412
2019-02-28T07:48:00.987Z,5480
2019-02-28T07:49:11.015Z,5532
2019-02-28T07:50:20.997Z,5584
2019-02-28T07:51:32.935Z,5612
2019-02-28T07:52:42.673Z,5660
2019-02-28T07:53:52.674Z,5720
2019-02-28T07:55:03.035Z,5784
2019-02-28T07:56:14.891Z,5840
2019-02-28T07:57:27.287Z,5876
2019-02-28T07:58:40.483Z,5940
2019-02-28T07:59:50.459Z,6000
2019-02-28T08:01:00.690Z,6036
2019-02-28T08:02:11.011Z,6096
2019-02-28T08:03:20.992Z,6136
2019-02-28T08:04:30.957Z,6208
2019-02-28T08:05:40.942Z,6276
2019-02-28T08:06:50.935Z,6320
2019-02-28T08:08:02.555Z,6384
2019-02-28T08:09:12.701Z,6456
2019-02-28T08:10:23.051Z,6532
2019-02-28T08:11:33.253Z,6624
2019-02-28T08:12:43.213Z,6640
2019-02-28T08:13:55.287Z,6844
2019-02-28T08:15:05.261Z,6948
2019-02-28T08:16:14.977Z,7036
2019-02-28T08:17:24.714Z,7128
2019-02-28T08:18:36.492Z,7216
2019-02-28T08:19:46.472Z,7312
2019-02-28T08:20:56.193Z,7388
2019-02-28T08:22:06.182Z,7476
2019-02-28T08:23:17.577Z,7608
2019-02-28T08:24:29.049Z,7776
2019-02-28T08:25:42.745Z,8112
2019-02-28T08:26:57.880Z,8456
2019-02-28T08:28:08.069Z,8472
2019-02-28T08:29:18.910Z,8616
2019-02-28T08:30:28.884Z,8616
2019-02-28T08:31:39.498Z,8244
2019-02-28T08:32:51.790Z,8652
2019-02-28T08:34:01.493Z,8740
2019-02-28T08:35:11.195Z,8796
2019-02-28T08:36:20.922Z,8828
2019-02-28T08:37:30.972Z,9064
2019-02-28T08:38:43.671Z,9156
2019-02-28T08:39:53.503Z,9228
2019-02-28T08:41:03.468Z,9396
2019-02-28T08:42:14.173Z,9436
2019-02-28T08:43:33.979Z,9504
2019-02-28T08:44:43.987Z,9584
2019-02-28T08:45:53.982Z,9536
2019-02-28T08:47:04.060Z,9612
2019-02-28T08:48:15.250Z,9704
2019-02-28T08:49:25.247Z,9772
2019-02-28T08:50:35.253Z,9732
2019-02-28T08:51:45.724Z,9828
2019-02-28T08:52:55.895Z,9800
2019-02-28T08:54:06.141Z,9588
2019-02-28T08:55:16.484Z,9888
2019-02-28T08:56:37.111Z,10016
2019-02-28T08:57:58.726Z,9928
2019-02-28T08:59:25.188Z,10164
2019-02-28T09:00:42.450Z,10308
2019-02-28T09:01:52.169Z,10280
2019-02-28T09:03:03.066Z,10420
2019-02-28T09:04:13.023Z,10460
2019-02-28T09:05:30.018Z,10432
2019-02-28T09:06:45.316Z,10488
2019-02-28T09:08:00.697Z,10552
2019-02-28T09:09:10.402Z,10656
2019-02-28T09:10:21.986Z,10712
2019-02-28T09:11:31.949Z,10844
2019-02-28T09:12:42.161Z,10908
2019-02-28T09:13:52.129Z,11004
2019-02-28T09:15:03.502Z,11208
2019-02-28T09:16:13.238Z,11184
2019-02-28T09:17:25.827Z,11320
2019-02-28T09:18:35.556Z,11452
2019-02-28T09:19:45.278Z,11344
2019-02-28T09:20:54.713Z,11040
2019-02-28T09:22:04.673Z,11136
2019-02-28T09:23:14.385Z,11060
2019-02-28T09:24:25.916Z,10948
2019-02-28T09:25:36.031Z,11212
2019-02-28T09:26:46.237Z,11600
2019-02-28T09:27:56.276Z,11576
2019-02-28T09:29:06.240Z,11848
2019-02-28T09:30:16.241Z,11424
2019-02-28T09:31:25.699Z,12452
2019-02-28T09:32:35.660Z,12936
2019-02-28T09:33:45.637Z,13128
2019-02-28T09:34:55.354Z,13240
2019-02-28T09:36:05.325Z,13496
2019-02-28T09:37:15.020Z,14296
2019-02-28T09:38:24.742Z,14192
2019-02-28T09:39:34.714Z,14004
2019-02-28T09:40:46.136Z,13728
2019-02-28T09:41:55.876Z,13800
2019-02-28T09:43:05.366Z,14428
2019-02-28T09:44:15.345Z,14240
2019-02-28T09:45:25.317Z,13576
2019-02-28T09:46:35.289Z,14984
2019-02-28T09:47:45.288Z,15680
2019-02-28T09:48:55.316Z,15260
2019-02-28T09:50:05.067Z,14748
2019-02-28T09:51:15.093Z,15044
2019-02-28T09:52:24.991Z,16416
2019-02-28T09:53:34.703Z,15784
2019-02-28T09:54:44.693Z,16800
2019-02-28T09:55:54.706Z,17216
2019-02-28T09:57:05.996Z,18144
2019-02-28T09:58:15.709Z,18208
2019-02-28T09:59:25.693Z,20192
2019-02-28T10:00:35.426Z,18656
2019-02-28T10:01:47.067Z,17792
2019-02-28T10:02:57.948Z,20832
2019-02-28T10:04:07.946Z,21536
2019-02-28T10:05:18.982Z,21216
2019-02-28T10:06:29.028Z,22880
2019-02-28T10:07:41.857Z,21792
2019-02-28T10:08:51.105Z,20352
2019-02-28T10:10:00.821Z,20256
2019-02-28T10:11:10.803Z,21216
2019-02-28T10:12:20.256Z,20768
2019-02-28T10:13:30.974Z,24960
2019-02-28T10:14:41.625Z,26112
2019-02-28T10:15:51.597Z,26016
2019-02-28T10:17:01.318Z,26752
2019-02-28T10:18:11.963Z,28192
2019-02-28T10:19:23.751Z,24736
2019-02-28T10:20:35.578Z,24224
2019-02-28T10:21:51.801Z,30336
2019-02-28T10:23:02.081Z,30112
2019-02-28T10:24:11.800Z,27168
2019-02-28T10:25:21.766Z,26144
2019-02-28T10:26:31.481Z,29472
2019-02-28T10:27:41.449Z,31072
2019-02-28T10:28:51.406Z,30880
2019-02-28T10:30:01.127Z,29376
2019-02-28T10:31:10.839Z,28000
2019-02-28T10:32:20.786Z,29344
2019-02-28T10:33:30.762Z,30400
2019-02-28T10:34:42.595Z,34240
2019-02-28T10:35:52.562Z,32704
2019-02-28T10:37:04.296Z,31008
2019-02-28T10:38:13.836Z,31392
2019-02-28T10:39:23.535Z,31072
2019-02-28T10:40:33.074Z,31264
2019-02-28T10:41:43.241Z,30304
2019-02-28T10:42:54.344Z,30112
2019-02-28T10:44:04.297Z,30080
2019-02-28T10:45:14.127Z,30912
2019-02-28T10:46:27.331Z,28992
2019-02-28T10:47:37.306Z,34016
2019-02-28T10:48:57.933Z,30240
2019-02-28T10:50:07.686Z,35872
2019-02-28T10:51:22.303Z,38336
2019-02-28T10:52:35.591Z,40448
2019-02-28T10:53:46.611Z,42304
2019-02-28T10:54:56.358Z,31840
2019-02-28T10:56:06.392Z,30304
2019-02-28T10:57:16.366Z,34176
2019-02-28T10:58:26.365Z,36960
2019-02-28T10:59:36.346Z,30272
2019-02-28T11:00:46.086Z,41024
2019-02-28T11:01:56.050Z,46272
2019-02-28T11:03:05.774Z,35680
2019-02-28T11:04:15.744Z,38144
2019-02-28T11:05:27.464Z,38112
2019-02-28T11:06:37.570Z,37824
2019-02-28T11:07:48.631Z,36992
2019-02-28T11:08:58.342Z,35200
2019-02-28T11:10:09.420Z,32448
2019-02-28T11:11:19.380Z,38080
2019-02-28T11:12:31.039Z,42400
2019-02-28T11:13:40.998Z,45536
2019-02-28T11:14:50.966Z,42688
2019-02-28T11:16:00.929Z,40896
2019-02-28T11:17:17.666Z,40512
2019-02-28T11:18:27.631Z,40256
2019-02-28T11:19:37.613Z,41120
2019-02-28T11:20:47.612Z,45248
2019-02-28T11:21:57.591Z,44448
2019-02-28T11:23:16.938Z,44864
2019-02-28T11:24:31.912Z,46752
2019-02-28T11:25:42.580Z,47904
2019-02-28T11:26:52.792Z,45408
2019-02-28T11:28:03.228Z,40320
2019-02-28T11:29:13.216Z,40768
2019-02-28T11:30:22.918Z,42560
2019-02-28T11:31:33.061Z,47136
2019-02-28T11:32:42.784Z,55520
2019-02-28T11:33:52.508Z,49952
2019-02-28T11:35:02.238Z,47776
2019-02-28T11:36:13.021Z,49312
2019-02-28T11:37:22.733Z,59904
2019-02-28T11:38:32.738Z,57504
2019-02-28T11:39:42.694Z,60160
2019-02-28T11:41:01.810Z,63232
2019-02-28T11:42:11.792Z,57824
2019-02-28T11:43:21.767Z,61440
2019-02-28T11:44:31.240Z,54976
2019-02-28T11:45:40.989Z,65120
2019-02-28T11:46:50.711Z,65696
2019-02-28T11:48:00.432Z,66624
2019-02-28T11:49:10.139Z,59840
2019-02-28T11:50:21.286Z,56608
2019-02-28T11:51:32.728Z,54528
2019-02-28T11:52:42.708Z,40672
2019-02-28T11:53:52.653Z,39488
2019-02-28T11:55:02.634Z,38464
2019-02-28T11:56:12.362Z,35424
2019-02-28T11:57:23.168Z,31904
2019-02-28T11:58:35.240Z,36320
2019-02-28T11:59:44.710Z,41088
2019-02-28T12:00:54.675Z,53280
2019-02-28T12:02:04.399Z,46592
2019-02-28T12:03:14.099Z,42048
2019-02-28T12:04:23.871Z,56544
2019-02-28T12:05:33.882Z,53568
2019-02-28T12:06:43.875Z,54016
2019-02-28T12:07:53.887Z,52672
2019-02-28T12:09:03.608Z,42976
2019-02-28T12:10:13.600Z,33536
2019-02-28T12:11:25.096Z,31200
2019-02-28T12:12:35.154Z,36128
2019-02-28T12:13:44.863Z,43168
2019-02-28T12:14:54.824Z,44160
2019-02-28T12:16:06.957Z,53792
2019-02-28T12:17:17.586Z,51136
2019-02-28T12:18:28.631Z,49184
2019-02-28T12:19:38.339Z,38816
2019-02-28T12:20:48.389Z,45440
2019-02-28T12:22:00.115Z,42208
2019-02-28T12:23:09.937Z,53696
2019-02-28T12:24:19.913Z,55072
2019-02-28T12:25:29.663Z,66944
2019-02-28T12:26:39.362Z,65888
2019-02-28T12:27:49.559Z,56640
2019-02-28T12:29:01.281Z,63456
2019-02-28T12:30:11.255Z,59456
2019-02-28T12:31:20.986Z,65600
2019-02-28T12:32:30.965Z,62688
2019-02-28T12:33:40.682Z,63808
2019-02-28T12:34:50.641Z,64256
2019-02-28T12:36:01.984Z,63360
2019-02-28T12:37:11.962Z,61344
2019-02-28T12:38:21.689Z,67936
2019-02-28T12:39:36.286Z,66848
2019-02-28T12:40:51.938Z,68192
2019-02-28T12:42:04.793Z,63680
2019-02-28T12:43:16.149Z,60896
2019-02-28T12:44:25.864Z,61024
2019-02-28T12:45:35.338Z,68448
2019-02-28T12:46:45.595Z,65888
2019-02-28T12:47:54.820Z,66560
2019-02-28T12:49:04.545Z,68064
2019-02-28T12:50:14.018Z,65472
2019-02-28T12:51:24.038Z,65728
2019-02-28T12:52:33.759Z,71040
2019-02-28T12:53:43.486Z,73856
2019-02-28T12:54:53.480Z,64096
2019-02-28T12:56:04.538Z,56864
2019-02-28T12:57:13.997Z,55840
2019-02-28T12:58:36.086Z,54848
2019-02-28T12:59:51.378Z,55328
2019-02-28T13:01:05.530Z,50784
2019-02-28T13:02:15.803Z,45504
2019-02-28T13:03:28.099Z,40448
2019-02-28T13:04:41.391Z,44064
2019-02-28T13:05:56.326Z,43328
2019-02-28T13:07:06.699Z,40704
2019-02-28T13:08:16.402Z,44864
2019-02-28T13:09:26.406Z,43968
2019-02-28T13:10:38.404Z,49088
2019-02-28T13:11:49.694Z,42048
2019-02-28T13:13:10.662Z,39744
2019-02-28T13:14:20.434Z,37280
2019-02-28T13:15:30.398Z,40352
2019-02-28T13:16:40.124Z,49888
2019-02-28T13:17:49.836Z,46304
2019-02-28T13:19:00.043Z,40128
2019-02-28T13:20:10.134Z,37952
2019-02-28T13:21:19.869Z,36960
2019-02-28T13:22:31.159Z,37216
2019-02-28T13:23:40.807Z,35008
2019-02-28T13:24:54.684Z,36896
2019-02-28T13:26:07.010Z,36256
2019-02-28T13:27:18.001Z,35232
2019-02-28T13:28:30.495Z,32064
2019-02-28T13:29:41.153Z,32480
2019-02-28T13:30:57.319Z,30656
2019-02-28T13:32:08.775Z,31040
2019-02-28T13:33:22.270Z,29504
2019-02-28T13:34:35.591Z,24864
2019-02-28T13:35:52.998Z,26080
2019-02-28T13:37:10.065Z,24288
2019-02-28T13:38:24.897Z,24704
2019-02-28T13:39:38.731Z,25472
2019-02-28T13:40:52.084Z,25792
2019-02-28T13:42:09.649Z,25504
2019-02-28T13:43:27.683Z,26528
2019-02-28T13:44:43.502Z,26816
2019-02-28T13:45:58.962Z,27168
2019-02-28T13:47:14.113Z,31264
2019-02-28T13:48:38.295Z,31488
2019-02-28T13:49:52.409Z,32768
2019-02-28T13:51:08.293Z,31104
2019-02-28T13:52:26.292Z,29376
2019-02-28T13:53:38.727Z,30496
2019-02-28T13:54:50.449Z,31584
2019-02-28T13:56:07.397Z,29216
2019-02-28T13:57:17.459Z,28160
2019-02-28T13:58:29.419Z,27680
2019-02-28T13:59:39.147Z,24704
2019-02-28T14:00:53.010Z,23936
2019-02-28T14:02:03.373Z,22656
2019-02-28T14:03:19.499Z,21760
2019-02-28T14:04:34.171Z,22400
2019-02-28T14:05:48.135Z,23648
2019-02-28T14:07:01.476Z,24000
2019-02-28T14:08:17.259Z,24512
2019-02-28T14:09:29.486Z,24064
2019-02-28T14:10:41.607Z,20992
2019-02-28T14:11:54.381Z,20768
2019-02-28T14:13:05.432Z,20736
2019-02-28T14:14:15.433Z,21568
2019-02-28T14:15:27.672Z,21184
2019-02-28T14:16:37.424Z,20544
2019-02-28T14:17:47.380Z,19072
2019-02-28T14:18:59.430Z,18112
2019-02-28T14:20:09.411Z,18720
2019-02-28T14:21:20.801Z,17472
2019-02-28T14:22:30.760Z,17248
2019-02-28T14:23:40.712Z,15968
2019-02-28T14:24:50.429Z,14904
2019-02-28T14:26:00.140Z,14512
2019-02-28T14:27:09.883Z,14604
2019-02-28T14:28:19.615Z,14608
2019-02-28T14:29:29.609Z,14312
2019-02-28T14:30:39.384Z,14412
2019-02-28T14:31:48.844Z,14400
2019-02-28T14:32:58.793Z,14452
2019-02-28T14:34:08.015Z,14840
2019-02-28T14:35:17.765Z,15712
2019-02-28T14:36:30.590Z,15456
2019-02-28T14:37:40.572Z,16768
2019-02-28T14:38:50.308Z,19648
2019-02-28T14:40:00.017Z,17984
2019-02-28T14:41:09.987Z,18656
2019-02-28T14:42:19.943Z,18048
2019-02-28T14:43:29.681Z,18880
2019-02-28T14:44:39.876Z,17312
2019-02-28T14:45:51.096Z,17760
2019-02-28T14:47:01.021Z,18880
2019-02-28T14:48:12.264Z,18560
2019-02-28T14:49:21.962Z,19680
2019-02-28T14:50:31.440Z,20832
2019-02-28T14:51:41.166Z,20224
2019-02-28T14:52:51.133Z,20032
2019-02-28T14:54:00.594Z,18752
2019-02-28T14:55:10.564Z,19744
2019-02-28T14:56:20.052Z,19456
2019-02-28T14:57:30.010Z,20032
2019-02-28T14:58:39.718Z,17920
2019-02-28T14:59:49.428Z,17376
2019-02-28T15:00:59.377Z,17728
2019-02-28T15:02:09.073Z,17792
2019-02-28T15:03:19.794Z,16832
2019-02-28T15:04:29.758Z,16096
2019-02-28T15:05:39.728Z,15968
2019-02-28T15:06:49.781Z,15744
2019-02-28T15:07:59.775Z,14552
2019-02-28T15:09:09.488Z,14564
2019-02-28T15:10:18.928Z,14492
2019-02-28T15:11:28.877Z,14012
2019-02-28T15:12:38.854Z,13488
2019-02-28T15:13:48.831Z,12524
2019-02-28T15:15:00.511Z,12524
2019-02-28T15:16:10.254Z,12396
2019-02-28T15:17:19.970Z,12200
2019-02-28T15:18:29.968Z,11452
2019-02-28T15:19:39.974Z,11604
2019-02-28T15:20:49.429Z,10868
2019-02-28T15:21:58.886Z,10348
2019-02-28T15:23:08.884Z,10292
2019-02-28T15:24:18.861Z,9780
2019-02-28T15:25:28.825Z,9452
2019-02-28T15:26:40.375Z,9076
2019-02-28T15:27:50.331Z,8812
2019-02-28T15:29:00.295Z,8564
2019-02-28T15:30:10.926Z,7988
2019-02-28T15:31:20.975Z,7604
2019-02-28T15:32:30.741Z,7108
2019-02-28T15:33:40.703Z,6864
2019-02-28T15:34:50.679Z,6748
2019-02-28T15:36:00.660Z,6584
2019-02-28T15:37:10.631Z,6372
2019-02-28T15:38:20.363Z,6216
2019-02-28T15:39:30.538Z,6052
2019-02-28T15:40:40.775Z,5852
2019-02-28T15:41:50.786Z,5632
2019-02-28T15:43:00.741Z,5392
2019-02-28T15:44:10.457Z,5172
2019-02-28T15:45:19.919Z,4976
2019-02-28T15:46:29.621Z,4800
2019-02-28T15:47:39.334Z,4620
2019-02-28T15:48:49.066Z,4468
2019-02-28T15:49:59.012Z,4280
2019-02-28T15:51:10.431Z,4088
2019-02-28T15:52:20.389Z,3912
2019-02-28T15:53:30.369Z,3748
2019-02-28T15:54:40.323Z,3580
2019-02-28T15:55:49.541Z,3432
2019-02-28T15:57:03.362Z,3280
2019-02-28T15:58:14.271Z,3136
2019-02-28T15:59:24.400Z,3000
2019-02-28T16:00:35.819Z,2872
2019-02-28T16:01:45.775Z,2748
2019-02-28T16:02:55.743Z,2624
2019-02-28T16:04:05.713Z,2496
2019-02-28T16:05:15.862Z,2364
2019-02-28T16:06:27.645Z,2236
2019-02-28T16:07:40.341Z,2104
2019-02-28T16:08:55.025Z,1980